sensor_id;sensor_type;location;lat;lon;timestamp;P1;durP1;ratioP1;P2;durP2;ratioP2
52354;SDS011;38286;51.156;17.038;2023-02-13T00:02:23;23.63;;;9.48;;
52354;SDS011;38286;51.156;17.038;2023-02-13T00:04:49;22.58;;;9.80;;
52354;SDS011;38286;51.156;17.038;2023-02-13T00:07:14;26.10;;;10.25;;
52354;SDS011;38286;51.156;17.038;2023-02-13T00:09:40;24.40;;;9.95;;
52354;SDS011;38286;51.156;17.038;2023-02-13T00:12:06;21.67;;;8.90;;
52354;SDS011;38286;51.156;17.038;2023-02-13T00:14:36;24.42;;;9.80;;
52354;SDS011;38286;51.156;17.038;2023-02-13T00:17:03;24.65;;;9.55;;
52354;SDS011;38286;51.156;17.038;2023-02-13T00:19:28;22.27;;;10.50;;
52354;SDS011;38286;51.156;17.038;2023-02-13T00:21:54;19.98;;;9.05;;
52354;SDS011;38286;51.156;17.038;2023-02-13T00:24:20;21.90;;;8.82;;
52354;SDS011;38286;51.156;17.038;2023-02-13T00:26:45;26.48;;;9.57;;
52354;SDS011;38286;51.156;17.038;2023-02-13T00:29:11;24.65;;;9.25;;
52354;SDS011;38286;51.156;17.038;2023-02-13T00:31:37;18.08;;;8.38;;
52354;SDS011;38286;51.156;17.038;2023-02-13T00:34:02;25.17;;;8.98;;
52354;SDS011;38286;51.156;17.038;2023-02-13T00:36:28;22.67;;;8.93;;
52354;SDS011;38286;51.156;17.038;2023-02-13T00:38:54;20.88;;;8.55;;
52354;SDS011;38286;51.156;17.038;2023-02-13T00:41:19;22.23;;;9.93;;
52354;SDS011;38286;51.156;17.038;2023-02-13T00:43:46;23.75;;;9.23;;
52354;SDS011;38286;51.156;17.038;2023-02-13T00:46:12;21.05;;;9.68;;
52354;SDS011;38286;51.156;17.038;2023-02-13T00:48:38;19.80;;;8.40;;
52354;SDS011;38286;51.156;17.038;2023-02-13T00:51:04;18.90;;;8.00;;
52354;SDS011;38286;51.156;17.038;2023-02-13T00:53:30;21.38;;;8.20;;
52354;SDS011;38286;51.156;17.038;2023-02-13T00:55:56;18.92;;;8.25;;
52354;SDS011;38286;51.156;17.038;2023-02-13T00:58:22;19.83;;;8.75;;
52354;SDS011;38286;51.156;17.038;2023-02-13T01:00:47;16.45;;;7.78;;
52354;SDS011;38286;51.156;17.038;2023-02-13T01:03:14;19.05;;;7.85;;
52354;SDS011;38286;51.156;17.038;2023-02-13T01:05:40;16.90;;;7.32;;
52354;SDS011;38286;51.156;17.038;2023-02-13T01:08:07;21.00;;;7.82;;
52354;SDS011;38286;51.156;17.038;2023-02-13T01:10:32;20.25;;;8.80;;
52354;SDS011;38286;51.156;17.038;2023-02-13T01:12:58;21.55;;;8.02;;
52354;SDS011;38286;51.156;17.038;2023-02-13T01:15:24;20.55;;;8.77;;
52354;SDS011;38286;51.156;17.038;2023-02-13T01:17:53;17.45;;;7.93;;
52354;SDS011;38286;51.156;17.038;2023-02-13T01:20:22;14.32;;;7.40;;
52354;SDS011;38286;51.156;17.038;2023-02-13T01:22:48;19.40;;;7.82;;
52354;SDS011;38286;51.156;17.038;2023-02-13T01:25:13;19.13;;;7.55;;
52354;SDS011;38286;51.156;17.038;2023-02-13T01:27:39;18.40;;;7.40;;
52354;SDS011;38286;51.156;17.038;2023-02-13T01:30:05;17.90;;;7.55;;
52354;SDS011;38286;51.156;17.038;2023-02-13T01:32:36;17.67;;;7.20;;
52354;SDS011;38286;51.156;17.038;2023-02-13T01:35:02;16.70;;;7.60;;
52354;SDS011;38286;51.156;17.038;2023-02-13T01:37:28;18.48;;;7.95;;
52354;SDS011;38286;51.156;17.038;2023-02-13T01:39:54;18.92;;;8.32;;
52354;SDS011;38286;51.156;17.038;2023-02-13T01:42:21;21.63;;;8.27;;
52354;SDS011;38286;51.156;17.038;2023-02-13T01:44:54;19.27;;;8.68;;
52354;SDS011;38286;51.156;17.038;2023-02-13T01:50:09;18.30;;;8.95;;
52354;SDS011;38286;51.156;17.038;2023-02-13T01:52:39;23.67;;;8.32;;
52354;SDS011;38286;51.156;17.038;2023-02-13T01:55:06;19.33;;;8.07;;
52354;SDS011;38286;51.156;17.038;2023-02-13T01:57:33;18.13;;;7.97;;
52354;SDS011;38286;51.156;17.038;2023-02-13T02:00:06;22.17;;;8.65;;
52354;SDS011;38286;51.156;17.038;2023-02-13T02:02:36;19.98;;;8.48;;
52354;SDS011;38286;51.156;17.038;2023-02-13T02:05:04;21.60;;;8.23;;
52354;SDS011;38286;51.156;17.038;2023-02-13T02:07:31;21.33;;;8.85;;
52354;SDS011;38286;51.156;17.038;2023-02-13T02:10:07;20.00;;;8.50;;
52354;SDS011;38286;51.156;17.038;2023-02-13T02:12:48;20.23;;;8.85;;
52354;SDS011;38286;51.156;17.038;2023-02-13T02:15:16;18.05;;;8.07;;
52354;SDS011;38286;51.156;17.038;2023-02-13T02:17:43;19.65;;;9.02;;
52354;SDS011;38286;51.156;17.038;2023-02-13T02:40:02;21.38;;;9.02;;
52354;SDS011;38286;51.156;17.038;2023-02-13T02:46:15;18.60;;;8.27;;
52354;SDS011;38286;51.156;17.038;2023-02-13T02:52:03;18.35;;;8.65;;
52354;SDS011;38286;51.156;17.038;2023-02-13T02:54:39;24.38;;;9.48;;
52354;SDS011;38286;51.156;17.038;2023-02-13T02:57:30;18.45;;;8.52;;
52354;SDS011;38286;51.156;17.038;2023-02-13T03:00:15;21.17;;;8.80;;
52354;SDS011;38286;51.156;17.038;2023-02-13T03:03:19;19.30;;;8.85;;
52354;SDS011;38286;51.156;17.038;2023-02-13T03:06:10;18.10;;;9.13;;
52354;SDS011;38286;51.156;17.038;2023-02-13T03:08:39;18.67;;;8.57;;
52354;SDS011;38286;51.156;17.038;2023-02-13T03:11:25;20.70;;;8.80;;
52354;SDS011;38286;51.156;17.038;2023-02-13T03:14:10;27.02;;;9.38;;
52354;SDS011;38286;51.156;17.038;2023-02-13T03:16:38;23.13;;;10.02;;
52354;SDS011;38286;51.156;17.038;2023-02-13T03:22:31;21.67;;;10.27;;
52354;SDS011;38286;51.156;17.038;2023-02-13T03:25:10;27.48;;;10.85;;
52354;SDS011;38286;51.156;17.038;2023-02-13T03:33:14;22.23;;;10.32;;
52354;SDS011;38286;51.156;17.038;2023-02-13T03:38:40;25.42;;;11.02;;
52354;SDS011;38286;51.156;17.038;2023-02-13T03:41:28;25.92;;;11.15;;
52354;SDS011;38286;51.156;17.038;2023-02-13T03:44:17;20.83;;;10.60;;
52354;SDS011;38286;51.156;17.038;2023-02-13T03:47:34;28.15;;;11.65;;
52354;SDS011;38286;51.156;17.038;2023-02-13T03:50:00;29.13;;;11.85;;
52354;SDS011;38286;51.156;17.038;2023-02-13T03:55:23;25.08;;;11.23;;
52354;SDS011;38286;51.156;17.038;2023-02-13T03:58:20;25.27;;;11.02;;
52354;SDS011;38286;51.156;17.038;2023-02-13T04:01:07;28.98;;;12.13;;
52354;SDS011;38286;51.156;17.038;2023-02-13T04:03:36;29.20;;;12.75;;
52354;SDS011;38286;51.156;17.038;2023-02-13T04:06:09;29.83;;;12.57;;
52354;SDS011;38286;51.156;17.038;2023-02-13T04:08:37;32.63;;;12.68;;
52354;SDS011;38286;51.156;17.038;2023-02-13T04:11:08;30.98;;;12.57;;
52354;SDS011;38286;51.156;17.038;2023-02-13T04:13:44;26.83;;;12.27;;
52354;SDS011;38286;51.156;17.038;2023-02-13T04:16:23;32.60;;;13.63;;
52354;SDS011;38286;51.156;17.038;2023-02-13T04:18:54;28.65;;;13.60;;
52354;SDS011;38286;51.156;17.038;2023-02-13T04:21:20;35.53;;;13.63;;
52354;SDS011;38286;51.156;17.038;2023-02-13T04:23:45;31.80;;;15.07;;
52354;SDS011;38286;51.156;17.038;2023-02-13T04:26:18;31.77;;;13.73;;
52354;SDS011;38286;51.156;17.038;2023-02-13T04:28:45;32.13;;;13.10;;
52354;SDS011;38286;51.156;17.038;2023-02-13T04:31:11;32.38;;;13.63;;
52354;SDS011;38286;51.156;17.038;2023-02-13T04:33:37;32.00;;;13.25;;
52354;SDS011;38286;51.156;17.038;2023-02-13T04:36:02;34.17;;;13.88;;
52354;SDS011;38286;51.156;17.038;2023-02-13T04:38:29;35.00;;;13.25;;
52354;SDS011;38286;51.156;17.038;2023-02-13T04:40:54;28.42;;;13.40;;
52354;SDS011;38286;51.156;17.038;2023-02-13T04:43:23;37.85;;;13.98;;
52354;SDS011;38286;51.156;17.038;2023-02-13T04:45:49;31.42;;;14.63;;
52354;SDS011;38286;51.156;17.038;2023-02-13T04:48:16;36.20;;;13.63;;
52354;SDS011;38286;51.156;17.038;2023-02-13T04:50:41;32.53;;;14.07;;
52354;SDS011;38286;51.156;17.038;2023-02-13T04:53:07;35.25;;;14.95;;
52354;SDS011;38286;51.156;17.038;2023-02-13T04:55:33;34.95;;;15.18;;
52354;SDS011;38286;51.156;17.038;2023-02-13T04:57:59;36.97;;;16.00;;
52354;SDS011;38286;51.156;17.038;2023-02-13T05:00:25;38.83;;;16.50;;
52354;SDS011;38286;51.156;17.038;2023-02-13T05:02:52;37.63;;;15.70;;
52354;SDS011;38286;51.156;17.038;2023-02-13T05:05:18;36.80;;;16.40;;
52354;SDS011;38286;51.156;17.038;2023-02-13T05:07:44;36.83;;;15.73;;
52354;SDS011;38286;51.156;17.038;2023-02-13T05:10:10;40.65;;;17.08;;
52354;SDS011;38286;51.156;17.038;2023-02-13T05:12:36;38.40;;;16.40;;
52354;SDS011;38286;51.156;17.038;2023-02-13T05:15:02;38.72;;;17.45;;
52354;SDS011;38286;51.156;17.038;2023-02-13T05:17:29;44.45;;;17.10;;
52354;SDS011;38286;51.156;17.038;2023-02-13T05:19:54;38.10;;;17.55;;
52354;SDS011;38286;51.156;17.038;2023-02-13T05:22:20;36.72;;;15.43;;
52354;SDS011;38286;51.156;17.038;2023-02-13T05:25:04;41.47;;;16.83;;
52354;SDS011;38286;51.156;17.038;2023-02-13T05:27:30;46.45;;;18.40;;
52354;SDS011;38286;51.156;17.038;2023-02-13T05:29:56;44.30;;;17.38;;
52354;SDS011;38286;51.156;17.038;2023-02-13T05:32:21;48.72;;;18.77;;
52354;SDS011;38286;51.156;17.038;2023-02-13T05:34:47;41.80;;;16.55;;
52354;SDS011;38286;51.156;17.038;2023-02-13T05:37:13;39.95;;;17.20;;
52354;SDS011;38286;51.156;17.038;2023-02-13T05:39:38;41.63;;;18.30;;
52354;SDS011;38286;51.156;17.038;2023-02-13T05:42:04;39.83;;;17.25;;
52354;SDS011;38286;51.156;17.038;2023-02-13T05:44:30;42.25;;;17.35;;
52354;SDS011;38286;51.156;17.038;2023-02-13T05:46:56;39.60;;;16.33;;
52354;SDS011;38286;51.156;17.038;2023-02-13T05:49:21;37.85;;;15.98;;
52354;SDS011;38286;51.156;17.038;2023-02-13T05:51:48;39.63;;;16.80;;
52354;SDS011;38286;51.156;17.038;2023-02-13T05:54:14;33.00;;;15.07;;
52354;SDS011;38286;51.156;17.038;2023-02-13T05:56:40;36.58;;;16.15;;
52354;SDS011;38286;51.156;17.038;2023-02-13T05:59:06;39.33;;;16.45;;
52354;SDS011;38286;51.156;17.038;2023-02-13T06:01:32;36.95;;;16.23;;
52354;SDS011;38286;51.156;17.038;2023-02-13T06:03:58;41.42;;;16.42;;
52354;SDS011;38286;51.156;17.038;2023-02-13T06:06:23;41.35;;;16.58;;
52354;SDS011;38286;51.156;17.038;2023-02-13T06:08:49;44.70;;;17.98;;
52354;SDS011;38286;51.156;17.038;2023-02-13T06:11:15;45.17;;;18.52;;
52354;SDS011;38286;51.156;17.038;2023-02-13T06:13:41;48.80;;;18.48;;
52354;SDS011;38286;51.156;17.038;2023-02-13T06:16:07;41.65;;;16.15;;
52354;SDS011;38286;51.156;17.038;2023-02-13T06:18:33;36.58;;;16.33;;
52354;SDS011;38286;51.156;17.038;2023-02-13T06:21:00;36.88;;;15.63;;
52354;SDS011;38286;51.156;17.038;2023-02-13T06:23:26;33.83;;;14.43;;
52354;SDS011;38286;51.156;17.038;2023-02-13T06:25:52;36.65;;;15.85;;
52354;SDS011;38286;51.156;17.038;2023-02-13T06:28:17;32.92;;;14.25;;
52354;SDS011;38286;51.156;17.038;2023-02-13T06:30:43;37.70;;;15.50;;
52354;SDS011;38286;51.156;17.038;2023-02-13T06:33:09;37.33;;;15.55;;
52354;SDS011;38286;51.156;17.038;2023-02-13T06:35:34;36.22;;;15.48;;
52354;SDS011;38286;51.156;17.038;2023-02-13T06:38:00;39.50;;;16.10;;
52354;SDS011;38286;51.156;17.038;2023-02-13T06:40:26;39.95;;;15.80;;
52354;SDS011;38286;51.156;17.038;2023-02-13T06:42:51;35.70;;;15.00;;
52354;SDS011;38286;51.156;17.038;2023-02-13T06:45:17;38.88;;;15.55;;
52354;SDS011;38286;51.156;17.038;2023-02-13T06:47:43;39.92;;;15.15;;
52354;SDS011;38286;51.156;17.038;2023-02-13T06:50:11;36.28;;;14.13;;
52354;SDS011;38286;51.156;17.038;2023-02-13T06:52:37;33.75;;;15.25;;
52354;SDS011;38286;51.156;17.038;2023-02-13T06:55:03;32.72;;;14.07;;
52354;SDS011;38286;51.156;17.038;2023-02-13T06:57:30;40.20;;;16.33;;
52354;SDS011;38286;51.156;17.038;2023-02-13T07:00:00;36.30;;;14.90;;
52354;SDS011;38286;51.156;17.038;2023-02-13T07:02:30;36.20;;;14.68;;
52354;SDS011;38286;51.156;17.038;2023-02-13T07:04:57;40.47;;;16.05;;
52354;SDS011;38286;51.156;17.038;2023-02-13T07:07:22;36.90;;;14.90;;
52354;SDS011;38286;51.156;17.038;2023-02-13T07:09:48;32.55;;;13.88;;
52354;SDS011;38286;51.156;17.038;2023-02-13T07:12:13;33.17;;;13.68;;
52354;SDS011;38286;51.156;17.038;2023-02-13T07:14:39;32.40;;;13.77;;
52354;SDS011;38286;51.156;17.038;2023-02-13T07:17:05;31.88;;;14.77;;
52354;SDS011;38286;51.156;17.038;2023-02-13T07:19:31;36.55;;;15.32;;
52354;SDS011;38286;51.156;17.038;2023-02-13T07:21:57;32.35;;;14.52;;
52354;SDS011;38286;51.156;17.038;2023-02-13T07:24:23;32.35;;;13.60;;
52354;SDS011;38286;51.156;17.038;2023-02-13T07:26:48;36.00;;;13.65;;
52354;SDS011;38286;51.156;17.038;2023-02-13T07:29:14;32.45;;;13.20;;
52354;SDS011;38286;51.156;17.038;2023-02-13T07:31:40;30.67;;;13.55;;
52354;SDS011;38286;51.156;17.038;2023-02-13T07:34:06;34.25;;;14.45;;
52354;SDS011;38286;51.156;17.038;2023-02-13T07:36:31;32.35;;;14.10;;
52354;SDS011;38286;51.156;17.038;2023-02-13T07:38:57;34.50;;;16.27;;
52354;SDS011;38286;51.156;17.038;2023-02-13T07:41:23;37.00;;;15.63;;
52354;SDS011;38286;51.156;17.038;2023-02-13T07:43:51;33.08;;;14.73;;
52354;SDS011;38286;51.156;17.038;2023-02-13T07:46:17;34.15;;;14.32;;
52354;SDS011;38286;51.156;17.038;2023-02-13T07:48:43;36.65;;;14.60;;
52354;SDS011;38286;51.156;17.038;2023-02-13T07:51:09;36.85;;;15.10;;
52354;SDS011;38286;51.156;17.038;2023-02-13T07:53:35;33.63;;;13.32;;
52354;SDS011;38286;51.156;17.038;2023-02-13T07:56:04;34.55;;;13.18;;
52354;SDS011;38286;51.156;17.038;2023-02-13T07:58:33;37.13;;;14.85;;
52354;SDS011;38286;51.156;17.038;2023-02-13T08:01:07;37.67;;;14.45;;
52354;SDS011;38286;51.156;17.038;2023-02-13T08:03:33;35.17;;;14.68;;
52354;SDS011;38286;51.156;17.038;2023-02-13T08:05:58;38.30;;;14.82;;
52354;SDS011;38286;51.156;17.038;2023-02-13T08:08:24;41.40;;;15.45;;
52354;SDS011;38286;51.156;17.038;2023-02-13T08:10:50;35.10;;;14.10;;
52354;SDS011;38286;51.156;17.038;2023-02-13T08:13:34;38.88;;;15.13;;
52354;SDS011;38286;51.156;17.038;2023-02-13T08:16:01;36.20;;;14.52;;
52354;SDS011;38286;51.156;17.038;2023-02-13T08:18:27;36.42;;;15.07;;
52354;SDS011;38286;51.156;17.038;2023-02-13T08:20:52;36.25;;;14.60;;
52354;SDS011;38286;51.156;17.038;2023-02-13T08:23:18;36.55;;;13.77;;
52354;SDS011;38286;51.156;17.038;2023-02-13T08:25:44;31.73;;;13.25;;
52354;SDS011;38286;51.156;17.038;2023-02-13T08:28:12;32.90;;;12.63;;
52354;SDS011;38286;51.156;17.038;2023-02-13T08:30:37;33.03;;;12.80;;
52354;SDS011;38286;51.156;17.038;2023-02-13T08:33:03;34.28;;;12.88;;
52354;SDS011;38286;51.156;17.038;2023-02-13T08:35:29;31.83;;;12.95;;
52354;SDS011;38286;51.156;17.038;2023-02-13T08:37:56;32.33;;;12.68;;
52354;SDS011;38286;51.156;17.038;2023-02-13T08:40:22;35.00;;;12.40;;
52354;SDS011;38286;51.156;17.038;2023-02-13T08:42:48;31.85;;;12.45;;
52354;SDS011;38286;51.156;17.038;2023-02-13T08:45:13;36.28;;;12.63;;
52354;SDS011;38286;51.156;17.038;2023-02-13T08:47:39;29.38;;;11.60;;
52354;SDS011;38286;51.156;17.038;2023-02-13T08:50:05;32.25;;;12.00;;
52354;SDS011;38286;51.156;17.038;2023-02-13T08:52:31;34.25;;;12.18;;
52354;SDS011;38286;51.156;17.038;2023-02-13T08:54:57;36.88;;;13.60;;
52354;SDS011;38286;51.156;17.038;2023-02-13T08:57:22;33.28;;;12.68;;
52354;SDS011;38286;51.156;17.038;2023-02-13T08:59:48;40.28;;;14.32;;
52354;SDS011;38286;51.156;17.038;2023-02-13T09:02:14;34.58;;;12.52;;
52354;SDS011;38286;51.156;17.038;2023-02-13T09:04:39;31.77;;;11.40;;
52354;SDS011;38286;51.156;17.038;2023-02-13T09:07:05;26.33;;;10.15;;
52354;SDS011;38286;51.156;17.038;2023-02-13T09:09:30;28.70;;;9.43;;
52354;SDS011;38286;51.156;17.038;2023-02-13T09:11:56;30.10;;;10.60;;
52354;SDS011;38286;51.156;17.038;2023-02-13T09:14:22;22.50;;;9.00;;
52354;SDS011;38286;51.156;17.038;2023-02-13T09:16:48;20.55;;;8.57;;
52354;SDS011;38286;51.156;17.038;2023-02-13T09:19:14;12.88;;;5.55;;
52354;SDS011;38286;51.156;17.038;2023-02-13T09:21:40;11.13;;;5.00;;
52354;SDS011;38286;51.156;17.038;2023-02-13T09:24:06;8.60;;;4.22;;
52354;SDS011;38286;51.156;17.038;2023-02-13T09:26:33;7.75;;;3.15;;
52354;SDS011;38286;51.156;17.038;2023-02-13T09:28:58;5.43;;;2.38;;
52354;SDS011;38286;51.156;17.038;2023-02-13T09:31:24;4.97;;;1.80;;
52354;SDS011;38286;51.156;17.038;2023-02-13T09:33:50;4.53;;;2.40;;
52354;SDS011;38286;51.156;17.038;2023-02-13T09:36:17;3.30;;;2.38;;
52354;SDS011;38286;51.156;17.038;2023-02-13T09:38:45;4.13;;;2.20;;
52354;SDS011;38286;51.156;17.038;2023-02-13T09:43:57;4.13;;;2.50;;
52354;SDS011;38286;51.156;17.038;2023-02-13T09:46:27;3.78;;;2.30;;
52354;SDS011;38286;51.156;17.038;2023-02-13T09:48:54;5.13;;;2.60;;
52354;SDS011;38286;51.156;17.038;2023-02-13T09:51:21;6.90;;;3.17;;
52354;SDS011;38286;51.156;17.038;2023-02-13T09:53:51;3.90;;;2.67;;
52354;SDS011;38286;51.156;17.038;2023-02-13T09:56:21;7.18;;;3.00;;
52354;SDS011;38286;51.156;17.038;2023-02-13T09:58:57;7.38;;;2.75;;
52354;SDS011;38286;51.156;17.038;2023-02-13T10:01:28;5.05;;;2.75;;
52354;SDS011;38286;51.156;17.038;2023-02-13T10:04:02;6.13;;;3.42;;
52354;SDS011;38286;51.156;17.038;2023-02-13T10:06:43;5.45;;;3.05;;
52354;SDS011;38286;51.156;17.038;2023-02-13T10:17:39;4.35;;;2.65;;
52354;SDS011;38286;51.156;17.038;2023-02-13T10:20:09;7.28;;;2.60;;
52354;SDS011;38286;51.156;17.038;2023-02-13T10:22:58;5.43;;;2.88;;
52354;SDS011;38286;51.156;17.038;2023-02-13T10:25:28;4.18;;;2.35;;
52354;SDS011;38286;51.156;17.038;2023-02-13T10:27:59;4.85;;;2.50;;
52354;SDS011;38286;51.156;17.038;2023-02-13T10:30:40;3.78;;;2.25;;
52354;SDS011;38286;51.156;17.038;2023-02-13T10:33:14;5.63;;;2.70;;
52354;SDS011;38286;51.156;17.038;2023-02-13T10:36:00;4.60;;;2.15;;
52354;SDS011;38286;51.156;17.038;2023-02-13T10:38:31;4.73;;;2.47;;
52354;SDS011;38286;51.156;17.038;2023-02-13T10:41:09;4.35;;;2.65;;
52354;SDS011;38286;51.156;17.038;2023-02-13T10:52:07;3.83;;;2.35;;
52354;SDS011;38286;51.156;17.038;2023-02-13T10:57:21;4.50;;;2.30;;
52354;SDS011;38286;51.156;17.038;2023-02-13T11:02:26;4.88;;;2.28;;
52354;SDS011;38286;51.156;17.038;2023-02-13T11:04:57;4.10;;;2.78;;
52354;SDS011;38286;51.156;17.038;2023-02-13T11:07:25;5.60;;;2.65;;
52354;SDS011;38286;51.156;17.038;2023-02-13T11:09:52;3.80;;;2.30;;
52354;SDS011;38286;51.156;17.038;2023-02-13T11:12:24;3.90;;;2.17;;
52354;SDS011;38286;51.156;17.038;2023-02-13T11:15:19;4.68;;;2.85;;
52354;SDS011;38286;51.156;17.038;2023-02-13T11:17:46;5.97;;;2.70;;
52354;SDS011;38286;51.156;17.038;2023-02-13T11:20:31;3.97;;;2.35;;
52354;SDS011;38286;51.156;17.038;2023-02-13T11:23:16;4.60;;;2.50;;
52354;SDS011;38286;51.156;17.038;2023-02-13T11:26:11;3.78;;;2.38;;
52354;SDS011;38286;51.156;17.038;2023-02-13T11:28:50;3.67;;;2.28;;
52354;SDS011;38286;51.156;17.038;2023-02-13T11:31:21;4.22;;;2.60;;
52354;SDS011;38286;51.156;17.038;2023-02-13T11:33:49;7.20;;;2.88;;
52354;SDS011;38286;51.156;17.038;2023-02-13T11:36:21;5.03;;;2.70;;
52354;SDS011;38286;51.156;17.038;2023-02-13T11:39:05;7.03;;;2.63;;
52354;SDS011;38286;51.156;17.038;2023-02-13T11:41:41;5.72;;;2.80;;
52354;SDS011;38286;51.156;17.038;2023-02-13T11:44:18;3.72;;;2.65;;
52354;SDS011;38286;51.156;17.038;2023-02-13T11:46:52;4.05;;;2.40;;
52354;SDS011;38286;51.156;17.038;2023-02-13T11:49:26;6.38;;;2.90;;
52354;SDS011;38286;51.156;17.038;2023-02-13T11:51:54;6.43;;;2.58;;
52354;SDS011;38286;51.156;17.038;2023-02-13T11:57:22;4.77;;;2.47;;
52354;SDS011;38286;51.156;17.038;2023-02-13T11:59:50;6.50;;;2.80;;
52354;SDS011;38286;51.156;17.038;2023-02-13T12:04:44;6.10;;;2.40;;
52354;SDS011;38286;51.156;17.038;2023-02-13T12:09:43;5.55;;;3.00;;
52354;SDS011;38286;51.156;17.038;2023-02-13T12:12:14;5.13;;;2.60;;
52354;SDS011;38286;51.156;17.038;2023-02-13T12:14:42;3.50;;;2.30;;
52354;SDS011;38286;51.156;17.038;2023-02-13T12:17:16;5.93;;;2.80;;
52354;SDS011;38286;51.156;17.038;2023-02-13T12:19:46;2.80;;;2.28;;
52354;SDS011;38286;51.156;17.038;2023-02-13T12:33:27;4.93;;;3.08;;
52354;SDS011;38286;51.156;17.038;2023-02-13T12:41:43;8.10;;;2.60;;
52354;SDS011;38286;51.156;17.038;2023-02-13T12:44:34;4.03;;;2.40;;
52354;SDS011;38286;51.156;17.038;2023-02-13T12:47:09;3.28;;;1.98;;
52354;SDS011;38286;51.156;17.038;2023-02-13T12:52:13;5.07;;;2.28;;
52354;SDS011;38286;51.156;17.038;2023-02-13T12:57:44;4.72;;;2.30;;
52354;SDS011;38286;51.156;17.038;2023-02-13T13:03:16;4.28;;;2.60;;
52354;SDS011;38286;51.156;17.038;2023-02-13T13:08:36;3.97;;;2.58;;
52354;SDS011;38286;51.156;17.038;2023-02-13T13:11:27;5.60;;;2.83;;
52354;SDS011;38286;51.156;17.038;2023-02-13T13:22:18;5.65;;;2.88;;
52354;SDS011;38286;51.156;17.038;2023-02-13T13:27:38;4.78;;;2.45;;
52354;SDS011;38286;51.156;17.038;2023-02-13T13:30:16;6.18;;;3.08;;
52354;SDS011;38286;51.156;17.038;2023-02-13T13:32:45;3.78;;;2.38;;
52354;SDS011;38286;51.156;17.038;2023-02-13T13:35:15;3.85;;;2.15;;
52354;SDS011;38286;51.156;17.038;2023-02-13T13:37:47;4.78;;;2.65;;
52354;SDS011;38286;51.156;17.038;2023-02-13T13:51:12;4.32;;;3.08;;
52354;SDS011;38286;51.156;17.038;2023-02-13T13:56:23;5.13;;;2.97;;
52354;SDS011;38286;51.156;17.038;2023-02-13T13:58:49;6.53;;;3.38;;
52354;SDS011;38286;51.156;17.038;2023-02-13T14:01:30;9.48;;;4.28;;
52354;SDS011;38286;51.156;17.038;2023-02-13T14:03:57;11.25;;;4.10;;
52354;SDS011;38286;51.156;17.038;2023-02-13T14:15:03;15.45;;;7.03;;
52354;SDS011;38286;51.156;17.038;2023-02-13T14:22:54;8.93;;;4.40;;
52354;SDS011;38286;51.156;17.038;2023-02-13T14:25:23;7.03;;;4.18;;
52354;SDS011;38286;51.156;17.038;2023-02-13T14:27:57;6.47;;;3.78;;
52354;SDS011;38286;51.156;17.038;2023-02-13T14:30:35;5.35;;;3.40;;
52354;SDS011;38286;51.156;17.038;2023-02-13T14:33:07;5.75;;;3.15;;
52354;SDS011;38286;51.156;17.038;2023-02-13T14:35:45;5.85;;;3.72;;
52354;SDS011;38286;51.156;17.038;2023-02-13T14:40:56;7.63;;;4.10;;
52354;SDS011;38286;51.156;17.038;2023-02-13T14:43:39;9.02;;;4.43;;
52354;SDS011;38286;51.156;17.038;2023-02-13T14:48:51;9.35;;;4.57;;
52354;SDS011;38286;51.156;17.038;2023-02-13T14:51:22;8.00;;;4.07;;
52354;SDS011;38286;51.156;17.038;2023-02-13T14:53:56;7.22;;;4.40;;
52354;SDS011;38286;51.156;17.038;2023-02-13T14:56:24;5.85;;;3.85;;
52354;SDS011;38286;51.156;17.038;2023-02-13T14:58:55;6.20;;;3.95;;
52354;SDS011;38286;51.156;17.038;2023-02-13T15:01:27;7.85;;;3.97;;
52354;SDS011;38286;51.156;17.038;2023-02-13T15:06:33;6.80;;;4.13;;
52354;SDS011;38286;51.156;17.038;2023-02-13T15:09:02;7.72;;;4.20;;
52354;SDS011;38286;51.156;17.038;2023-02-13T15:14:22;8.30;;;3.80;;
52354;SDS011;38286;51.156;17.038;2023-02-13T15:16:51;6.28;;;3.80;;
52354;SDS011;38286;51.156;17.038;2023-02-13T15:19:36;7.53;;;4.10;;
52354;SDS011;38286;51.156;17.038;2023-02-13T15:22:03;7.05;;;4.25;;
52354;SDS011;38286;51.156;17.038;2023-02-13T15:24:36;7.10;;;4.03;;
52354;SDS011;38286;51.156;17.038;2023-02-13T15:27:13;8.55;;;3.60;;
52354;SDS011;38286;51.156;17.038;2023-02-13T15:29:52;5.82;;;3.88;;
52354;SDS011;38286;51.156;17.038;2023-02-13T15:32:19;8.18;;;4.22;;
52354;SDS011;38286;51.156;17.038;2023-02-13T15:34:48;5.45;;;3.50;;
52354;SDS011;38286;51.156;17.038;2023-02-13T15:37:21;5.53;;;3.55;;
52354;SDS011;38286;51.156;17.038;2023-02-13T15:39:48;5.80;;;3.50;;
52354;SDS011;38286;51.156;17.038;2023-02-13T15:42:13;6.72;;;3.90;;
52354;SDS011;38286;51.156;17.038;2023-02-13T15:44:39;7.93;;;4.18;;
52354;SDS011;38286;51.156;17.038;2023-02-13T15:47:14;7.03;;;4.32;;
52354;SDS011;38286;51.156;17.038;2023-02-13T15:49:42;9.25;;;3.92;;
52354;SDS011;38286;51.156;17.038;2023-02-13T15:52:14;8.75;;;3.78;;
52354;SDS011;38286;51.156;17.038;2023-02-13T15:54:48;7.75;;;3.83;;
52354;SDS011;38286;51.156;17.038;2023-02-13T15:57:15;9.90;;;5.30;;
52354;SDS011;38286;51.156;17.038;2023-02-13T15:59:41;13.18;;;7.40;;
52354;SDS011;38286;51.156;17.038;2023-02-13T16:02:11;8.23;;;5.07;;
52354;SDS011;38286;51.156;17.038;2023-02-13T16:04:41;7.25;;;4.47;;
52354;SDS011;38286;51.156;17.038;2023-02-13T16:07:10;7.50;;;4.13;;
52354;SDS011;38286;51.156;17.038;2023-02-13T16:09:36;7.70;;;4.47;;
52354;SDS011;38286;51.156;17.038;2023-02-13T16:12:03;7.38;;;4.30;;
52354;SDS011;38286;51.156;17.038;2023-02-13T16:14:30;6.22;;;4.00;;
52354;SDS011;38286;51.156;17.038;2023-02-13T16:16:59;7.63;;;4.03;;
52354;SDS011;38286;51.156;17.038;2023-02-13T16:19:30;7.65;;;4.18;;
52354;SDS011;38286;51.156;17.038;2023-02-13T16:22:00;7.43;;;4.13;;
52354;SDS011;38286;51.156;17.038;2023-02-13T16:24:30;8.00;;;4.13;;
52354;SDS011;38286;51.156;17.038;2023-02-13T16:26:56;6.50;;;3.78;;
52354;SDS011;38286;51.156;17.038;2023-02-13T16:29:22;6.95;;;4.00;;
52354;SDS011;38286;51.156;17.038;2023-02-13T16:31:50;8.13;;;4.20;;
52354;SDS011;38286;51.156;17.038;2023-02-13T16:34:27;7.90;;;4.57;;
52354;SDS011;38286;51.156;17.038;2023-02-13T16:36:54;6.47;;;4.63;;
52354;SDS011;38286;51.156;17.038;2023-02-13T16:39:21;8.77;;;4.60;;
52354;SDS011;38286;51.156;17.038;2023-02-13T16:41:52;9.38;;;4.32;;
52354;SDS011;38286;51.156;17.038;2023-02-13T16:44:25;8.48;;;4.50;;
52354;SDS011;38286;51.156;17.038;2023-02-13T16:47:02;10.32;;;6.28;;
52354;SDS011;38286;51.156;17.038;2023-02-13T16:49:32;10.60;;;6.13;;
52354;SDS011;38286;51.156;17.038;2023-02-13T16:59:40;9.20;;;5.57;;
52354;SDS011;38286;51.156;17.038;2023-02-13T17:04:33;16.27;;;6.72;;
52354;SDS011;38286;51.156;17.038;2023-02-13T17:06:58;12.30;;;6.32;;
52354;SDS011;38286;51.156;17.038;2023-02-13T17:09:24;13.10;;;5.95;;
52354;SDS011;38286;51.156;17.038;2023-02-13T17:11:50;11.75;;;5.53;;
52354;SDS011;38286;51.156;17.038;2023-02-13T17:14:17;10.38;;;5.60;;
52354;SDS011;38286;51.156;17.038;2023-02-13T17:16:43;11.65;;;6.05;;
52354;SDS011;38286;51.156;17.038;2023-02-13T17:19:09;11.82;;;6.35;;
52354;SDS011;38286;51.156;17.038;2023-02-13T17:21:35;13.75;;;7.45;;